Archival Weather

Murmansk

Murmansk, Russia (ULMM)

Report from: Tuesday, May 21, 2024 11:00 AM MSK
Current time: Monday, June 17, 2024 9:53 AM MSK

Current weather – Weather history – Daily summaries
Weather forecast

Present weatherSHSNRA, SHSNRA
Temperature1.0°C (33.8°F)
Wind chill-4.2°C (24.5°F)
Dew point-8.0°C (17.6°F)
Winds 11.7 kts (6 m/s, 13.4 mph) Northwest (310°)
Visibility5.6 mi. (9 km)
Clouds Ceiling: Broken clouds with cumulonimbus 1,100 ft. (335 m)
Broken clouds with cumulonimbus 2,600 ft. (792 m)
Altimeter30.15 in.Hg (1021 mB)
Precip. events QF 7:38 PM
Relative humidity51 %
Density altitude-1,915 ft. (-584 m)
Flight conditions Marginal Visual Meteorological Conditions
Raw dataULMM 210800Z 31006MPS 9000 -SHSNRA BKN026CB 01/M08 Q1021 R31/190060 TEMPO 0800 +SHSNRA BKN011CB RMK QFE758
An error has occurred. This application may no longer respond until reloaded. Reload 🗙